createdAt,value
2018-02-01T00:00:18.220Z,950.49
2018-02-01T00:01:28.202Z,950.49
2018-02-01T00:02:37.660Z,950.51
2018-02-01T00:03:47.387Z,950.6
2018-02-01T00:04:57.368Z,950.6
2018-02-01T00:06:07.369Z,950.62
2018-02-01T00:07:17.355Z,950.62
2018-02-01T00:08:27.341Z,950.63
2018-02-01T00:09:37.334Z,950.67
2018-02-01T00:10:47.326Z,950.65
2018-02-01T00:11:57.311Z,950.68
2018-02-01T00:13:07.294Z,950.6
2018-02-01T00:14:17.290Z,950.66
2018-02-01T00:15:27.007Z,950.64
2018-02-01T00:16:36.990Z,950.62
2018-02-01T00:17:46.967Z,950.63
2018-02-01T00:18:56.995Z,950.65
2018-02-01T00:20:06.761Z,950.62
2018-02-01T00:21:15.958Z,950.65
2018-02-01T00:22:25.939Z,950.63
2018-02-01T00:23:35.921Z,950.69
2018-02-01T00:24:45.375Z,950.64
2018-02-01T00:25:55.086Z,950.65
2018-02-01T00:27:04.536Z,950.67
2018-02-01T00:28:14.521Z,950.62
2018-02-01T00:29:23.978Z,950.65
2018-02-01T00:30:33.964Z,950.64
2018-02-01T00:31:42.937Z,950.63
2018-02-01T00:32:52.922Z,950.66
2018-02-01T00:34:02.975Z,950.61
2018-02-01T00:35:12.691Z,950.61
2018-02-01T00:36:22.670Z,950.61
2018-02-01T00:37:32.712Z,950.55
2018-02-01T00:38:42.431Z,950.59
2018-02-01T00:39:52.142Z,950.56
2018-02-01T00:41:01.861Z,950.51
2018-02-01T00:42:11.088Z,950.55
2018-02-01T00:43:20.563Z,950.5
2018-02-01T00:44:30.543Z,950.52
2018-02-01T00:45:40.530Z,950.54
2018-02-01T00:46:50.511Z,950.58
2018-02-01T00:48:00.493Z,950.61
2018-02-01T00:49:10.314Z,950.64
2018-02-01T00:50:20.293Z,950.56
2018-02-01T00:51:30.279Z,950.53
2018-02-01T00:52:39.997Z,950.57
2018-02-01T00:53:49.720Z,950.56
2018-02-01T00:54:59.755Z,950.62
2018-02-01T00:56:09.473Z,950.66
2018-02-01T00:57:19.457Z,950.62
2018-02-01T00:58:29.446Z,950.64
2018-02-01T00:59:39.429Z,950.6
2018-02-01T01:00:48.894Z,950.58
2018-02-01T01:01:58.611Z,950.59
2018-02-01T01:03:08.598Z,950.63
2018-02-01T01:04:18.651Z,950.61
2018-02-01T01:05:27.842Z,950.58
2018-02-01T01:06:37.928Z,950.61
2018-02-01T01:07:47.913Z,950.57
2018-02-01T01:08:57.892Z,950.53
2018-02-01T01:10:07.607Z,950.52
2018-02-01T01:11:17.328Z,950.52
2018-02-01T01:12:27.044Z,950.55
2018-02-01T01:13:36.757Z,950.54
2018-02-01T01:14:46.734Z,950.6
2018-02-01T01:15:56.713Z,950.59
2018-02-01T01:17:06.166Z,950.58
2018-02-01T01:18:16.144Z,950.64
2018-02-01T01:19:25.600Z,950.63
2018-02-01T01:20:35.324Z,950.6
2018-02-01T01:21:45.039Z,950.62
2018-02-01T01:22:55.022Z,950.6
2018-02-01T01:24:05.001Z,950.67
2018-02-01T01:25:14.454Z,950.68
2018-02-01T01:26:23.905Z,950.7
2018-02-01T01:27:33.628Z,950.62
2018-02-01T01:28:43.345Z,950.61
2018-02-01T01:29:53.111Z,950.63
2018-02-01T01:31:02.826Z,950.62
2018-02-01T01:32:12.544Z,950.65
2018-02-01T01:33:22.525Z,950.66
2018-02-01T01:34:32.241Z,950.64
2018-02-01T01:35:42.221Z,950.64
2018-02-01T01:36:52.204Z,950.6
2018-02-01T01:38:01.921Z,950.61
2018-02-01T01:39:11.903Z,950.6
2018-02-01T01:40:21.882Z,950.61
2018-02-01T01:41:31.595Z,950.64
2018-02-01T01:42:41.575Z,950.7
2018-02-01T01:43:51.310Z,950.66
2018-02-01T01:45:01.304Z,950.68
2018-02-01T01:46:11.024Z,950.6
2018-02-01T01:47:21.002Z,950.61
2018-02-01T01:48:30.990Z,950.62
2018-02-01T01:49:40.716Z,950.58
2018-02-01T01:50:50.701Z,950.59
2018-02-01T01:52:00.683Z,950.59
2018-02-01T01:53:10.410Z,950.58
2018-02-01T01:54:20.130Z,950.58
2018-02-01T01:55:29.844Z,950.56
2018-02-01T01:56:39.560Z,950.61
2018-02-01T01:57:49.276Z,950.64
2018-02-01T01:58:59.253Z,950.62
2018-02-01T02:00:09.235Z,950.66
2018-02-01T02:01:19.271Z,950.64
2018-02-01T02:02:28.987Z,950.64
2018-02-01T02:03:38.443Z,950.65
2018-02-01T02:04:48.158Z,950.63
2018-02-01T02:05:58.137Z,950.58
2018-02-01T02:07:07.592Z,950.58
2018-02-01T02:08:17.574Z,950.56
2018-02-01T02:09:27.025Z,950.55
2018-02-01T02:10:36.741Z,950.56
2018-02-01T02:11:46.724Z,950.6
2018-02-01T02:12:56.705Z,950.59
2018-02-01T02:14:06.431Z,950.61
2018-02-01T02:15:16.410Z,950.63
2018-02-01T02:16:26.125Z,950.64
2018-02-01T02:17:36.106Z,950.61
2018-02-01T02:18:45.559Z,950.56
2018-02-01T02:19:55.549Z,950.63
2018-02-01T02:21:05.261Z,950.6
2018-02-01T02:22:14.712Z,950.6
2018-02-01T02:23:24.694Z,950.63
2018-02-01T02:24:34.681Z,950.62
2018-02-01T02:25:44.659Z,950.6
2018-02-01T02:26:54.379Z,950.66
2018-02-01T02:28:03.890Z,950.66
2018-02-01T02:29:13.344Z,950.59
2018-02-01T02:30:23.068Z,950.64
2018-02-01T02:31:33.062Z,950.66
2018-02-01T02:32:42.782Z,950.62
2018-02-01T02:33:52.558Z,950.65
2018-02-01T02:35:02.281Z,950.67
2018-02-01T02:36:12.262Z,950.72
2018-02-01T02:37:21.985Z,950.69
2018-02-01T02:38:31.990Z,950.66
2018-02-01T02:39:42.131Z,950.68
2018-02-01T02:40:52.121Z,950.67
2018-02-01T02:42:01.841Z,950.68
2018-02-01T02:43:11.575Z,950.65
2018-02-01T02:44:21.297Z,950.62
2018-02-01T02:45:31.020Z,950.68
2018-02-01T02:46:41.008Z,950.7
2018-02-01T02:47:50.730Z,950.68
2018-02-01T02:49:00.455Z,950.69
2018-02-01T02:50:10.442Z,950.72
2018-02-01T02:51:20.429Z,950.74
2018-02-01T02:52:30.427Z,950.76
2018-02-01T02:53:40.412Z,950.75
2018-02-01T02:54:50.401Z,950.71
2018-02-01T02:56:00.387Z,950.78
2018-02-01T02:57:10.367Z,950.79
2018-02-01T02:58:20.355Z,950.78
2018-02-01T02:59:30.339Z,950.76
2018-02-01T03:00:39.804Z,950.77
2018-02-01T03:01:49.525Z,950.81
2018-02-01T03:02:59.516Z,950.82
2018-02-01T03:04:09.502Z,950.82
2018-02-01T03:05:19.218Z,950.81
2018-02-01T03:06:28.937Z,950.82
2018-02-01T03:07:38.392Z,950.85
2018-02-01T03:08:48.373Z,950.85
2018-02-01T03:09:58.093Z,950.9
2018-02-01T03:11:07.286Z,950.86
2018-02-01T03:12:17.280Z,950.87
2018-02-01T03:13:26.469Z,950.9
2018-02-01T03:14:36.462Z,950.91
2018-02-01T03:15:46.175Z,950.95
2018-02-01T03:16:55.903Z,950.94
2018-02-01T03:18:05.618Z,950.95
2018-02-01T03:19:15.596Z,950.88
2018-02-01T03:20:25.359Z,950.92
2018-02-01T03:21:35.341Z,950.89
2018-02-01T03:22:44.529Z,950.94
2018-02-01T03:23:54.513Z,950.94
2018-02-01T03:25:04.502Z,950.92
2018-02-01T03:26:14.487Z,950.95
2018-02-01T03:27:24.470Z,950.99
2018-02-01T03:28:34.189Z,950.92
2018-02-01T03:29:43.649Z,950.9
2018-02-01T03:30:52.576Z,950.95
2018-02-01T03:32:02.630Z,950.93
2018-02-01T03:33:12.615Z,950.9
2018-02-01T03:34:22.076Z,950.9
2018-02-01T03:35:32.057Z,950.95
2018-02-01T03:36:42.035Z,950.94
2018-02-01T03:37:52.017Z,950.9
2018-02-01T03:39:02.002Z,950.93
2018-02-01T03:40:11.981Z,950.98
2018-02-01T03:41:21.697Z,950.97
2018-02-01T03:42:31.683Z,950.99
2018-02-01T03:43:41.133Z,950.99
2018-02-01T03:44:51.125Z,951.03
2018-02-01T03:46:01.105Z,951.06
2018-02-01T03:47:11.090Z,951.06
2018-02-01T03:48:21.071Z,951.08
2018-02-01T03:49:31.152Z,951.1
2018-02-01T03:50:41.138Z,951.07
2018-02-01T03:51:51.133Z,951.08
2018-02-01T03:53:00.584Z,951.1
2018-02-01T03:54:10.301Z,951.17
2018-02-01T03:55:20.323Z,951.15
2018-02-01T03:56:30.314Z,951.18
2018-02-01T03:57:40.298Z,951.17
2018-02-01T03:58:50.013Z,951.2
2018-02-01T03:59:59.994Z,951.18
2018-02-01T04:03:41.499Z,951.21
2018-02-01T04:04:51.220Z,951.25
2018-02-01T04:06:01.199Z,951.24
2018-02-01T04:07:10.912Z,951.22
2018-02-01T04:08:20.633Z,951.24
2018-02-01T04:09:30.084Z,951.2
2018-02-01T04:10:39.549Z,951.19
2018-02-01T04:11:49.263Z,951.18
2018-02-01T04:12:58.976Z,951.21
2018-02-01T04:14:08.694Z,951.21
2018-02-01T04:15:18.527Z,951.29
2018-02-01T04:16:28.516Z,951.27
2018-02-01T04:17:38.233Z,951.29
2018-02-01T04:18:47.950Z,951.3
2018-02-01T04:19:57.666Z,951.34
2018-02-01T04:21:07.393Z,951.34
2018-02-01T04:22:17.372Z,951.32
2018-02-01T04:23:27.354Z,951.33
2018-02-01T04:24:37.070Z,951.29
2018-02-01T04:25:46.785Z,951.31
2018-02-01T04:26:56.764Z,951.31
2018-02-01T04:28:06.225Z,951.31
2018-02-01T04:29:15.946Z,951.31
2018-02-01T04:30:25.401Z,951.3
2018-02-01T04:31:35.387Z,951.27
2018-02-01T04:32:45.419Z,951.28
2018-02-01T04:33:55.401Z,951.27
2018-02-01T04:35:05.386Z,951.31
2018-02-01T04:36:15.103Z,951.33
2018-02-01T04:37:24.818Z,951.38
2018-02-01T04:38:34.536Z,951.38
2018-02-01T04:39:44.520Z,951.41
2018-02-01T04:40:54.507Z,951.44
2018-02-01T04:42:04.489Z,951.44
2018-02-01T04:43:14.208Z,951.48
2018-02-01T04:44:24.251Z,951.47
2018-02-01T04:45:33.704Z,951.46
2018-02-01T04:46:43.200Z,951.47
2018-02-01T04:47:53.180Z,951.44
2018-02-01T04:49:02.905Z,951.5
2018-02-01T04:50:12.098Z,951.5
2018-02-01T04:51:21.815Z,951.52
2018-02-01T04:52:31.799Z,951.54
2018-02-01T04:53:41.781Z,951.55
2018-02-01T04:54:51.501Z,951.51
2018-02-01T04:56:01.221Z,951.55
2018-02-01T04:57:10.673Z,951.57
2018-02-01T04:58:20.391Z,951.55
2018-02-01T04:59:30.372Z,951.58
2018-02-01T05:00:40.087Z,951.59
2018-02-01T05:01:50.073Z,951.63
2018-02-01T05:02:59.794Z,951.66
2018-02-01T05:04:08.985Z,951.65
2018-02-01T05:05:18.969Z,951.67
2018-02-01T05:06:28.420Z,951.66
2018-02-01T05:07:38.445Z,951.7
2018-02-01T05:08:48.163Z,951.69
2018-02-01T05:09:58.142Z,951.76
2018-02-01T05:11:08.126Z,951.73
2018-02-01T05:12:18.108Z,951.76
2018-02-01T05:13:28.092Z,951.73
2018-02-01T05:14:37.596Z,951.8
2018-02-01T05:15:47.315Z,951.78
2018-02-01T05:16:57.300Z,951.83
2018-02-01T05:18:07.285Z,951.86
2018-02-01T05:19:17.264Z,951.83
2018-02-01T05:20:26.992Z,951.83
2018-02-01T05:21:36.442Z,951.85
2018-02-01T05:22:46.435Z,951.87
2018-02-01T05:23:56.433Z,951.84
2018-02-01T05:25:06.411Z,951.9
2018-02-01T05:26:16.136Z,951.87
2018-02-01T05:27:26.167Z,951.86
2018-02-01T05:28:36.146Z,951.85
2018-02-01T05:29:45.864Z,951.84
2018-02-01T05:30:55.893Z,951.83
2018-02-01T05:32:05.871Z,951.85
2018-02-01T05:33:15.594Z,951.91
2018-02-01T05:34:25.569Z,951.91
2018-02-01T05:35:35.289Z,951.91
2018-02-01T05:36:45.368Z,951.96
2018-02-01T05:37:55.092Z,951.89
2018-02-01T05:39:05.135Z,951.91
2018-02-01T05:40:14.592Z,951.94
2018-02-01T05:41:24.051Z,951.97
2018-02-01T05:42:34.030Z,951.99
2018-02-01T05:43:44.009Z,952.04
2018-02-01T05:44:53.991Z,952.02
2018-02-01T05:46:02.920Z,951.99
2018-02-01T05:47:12.641Z,952.02
2018-02-01T05:48:22.372Z,952.04
2018-02-01T05:49:32.090Z,952.03
2018-02-01T05:50:41.545Z,952.06
2018-02-01T05:51:51.528Z,952.07
2018-02-01T05:53:01.247Z,952.1
2018-02-01T05:54:11.232Z,952.14
2018-02-01T05:55:20.686Z,952.14
2018-02-01T05:56:30.667Z,952.17
2018-02-01T05:57:40.657Z,952.15
2018-02-01T05:58:50.376Z,952.18
2018-02-01T06:00:00.100Z,952.18
2018-02-01T06:01:09.824Z,952.18
2018-02-01T06:02:19.803Z,952.23
2018-02-01T06:03:29.259Z,952.23
2018-02-01T06:04:39.247Z,952.24
2018-02-01T06:05:49.385Z,952.29
2018-02-01T06:06:59.113Z,952.29
2018-02-01T06:08:08.832Z,952.28
2018-02-01T06:09:18.552Z,952.32
2018-02-01T06:10:28.276Z,952.35
2018-02-01T06:11:37.735Z,952.35
2018-02-01T06:12:47.450Z,952.33
2018-02-01T06:13:57.171Z,952.37
2018-02-01T06:15:06.904Z,952.42
2018-02-01T06:16:16.362Z,952.42
2018-02-01T06:17:26.344Z,952.42
2018-02-01T06:18:36.066Z,952.4
2018-02-01T06:19:46.045Z,952.41
2018-02-01T06:20:56.024Z,952.46
2018-02-01T06:22:05.478Z,952.44
2018-02-01T06:23:15.462Z,952.49
2018-02-01T06:24:25.181Z,952.52
2018-02-01T06:25:34.901Z,952.58
2018-02-01T06:26:44.362Z,952.61
2018-02-01T06:27:54.151Z,952.58
2018-02-01T06:29:03.883Z,952.57
2018-02-01T06:30:13.605Z,952.6
2018-02-01T06:31:23.595Z,952.68
2018-02-01T06:32:33.579Z,952.66
2018-02-01T06:33:43.334Z,952.66
2018-02-01T06:34:53.312Z,952.67
2018-02-01T06:36:03.297Z,952.67
2018-02-01T06:37:12.751Z,952.66
2018-02-01T06:38:22.472Z,952.73
2018-02-01T06:39:32.194Z,952.7
2018-02-01T06:40:42.299Z,952.77
2018-02-01T06:41:52.281Z,952.75
2018-02-01T06:43:02.317Z,952.83
2018-02-01T06:44:12.045Z,952.85
2018-02-01T06:45:22.037Z,952.84
2018-02-01T06:46:32.043Z,952.92
2018-02-01T06:47:41.782Z,952.91
2018-02-01T06:48:51.504Z,952.91
2018-02-01T06:50:01.220Z,952.93
2018-02-01T06:51:10.934Z,952.95
2018-02-01T06:52:20.963Z,952.94
2018-02-01T06:53:30.691Z,952.96
2018-02-01T06:54:40.419Z,952.99
2018-02-01T06:55:50.145Z,953.01
2018-02-01T06:56:59.599Z,953.04
2018-02-01T06:58:09.587Z,953.03
2018-02-01T06:59:19.574Z,953.05
2018-02-01T07:00:29.293Z,953.09
2018-02-01T07:01:39.014Z,953.11
2018-02-01T07:02:48.468Z,953.12
2018-02-01T07:03:58.188Z,953.14
2018-02-01T07:05:07.910Z,953.15
2018-02-01T07:06:17.892Z,953.14
2018-02-01T07:07:27.649Z,953.16
2018-02-01T07:08:37.642Z,953.16
2018-02-01T07:09:47.408Z,953.24
2018-02-01T07:10:57.400Z,953.23
2018-02-01T07:12:06.863Z,953.25
2018-02-01T07:13:16.321Z,953.29
2018-02-01T07:14:26.310Z,953.33
2018-02-01T07:15:36.347Z,953.34
2018-02-01T07:16:45.802Z,953.36
2018-02-01T07:17:55.527Z,953.31
2018-02-01T07:19:05.247Z,953.36
2018-02-01T07:20:15.234Z,953.35
2018-02-01T07:21:25.220Z,953.4
2018-02-01T07:22:34.413Z,953.45
2018-02-01T07:23:44.400Z,953.43
2018-02-01T07:24:54.184Z,953.46
2018-02-01T07:26:04.168Z,953.48
2018-02-01T07:27:14.212Z,953.5
2018-02-01T07:28:23.672Z,953.5
2018-02-01T07:29:33.393Z,953.52
2018-02-01T07:30:43.157Z,953.49
2018-02-01T07:31:53.190Z,953.49
2018-02-01T07:33:03.013Z,953.5
2018-02-01T07:34:12.998Z,953.51
2018-02-01T07:35:22.981Z,953.52
2018-02-01T07:36:32.964Z,953.57
2018-02-01T07:37:42.951Z,953.5
2018-02-01T07:38:52.671Z,953.56
2018-02-01T07:40:02.660Z,953.61
2018-02-01T07:41:12.116Z,953.57
2018-02-01T07:42:21.838Z,953.62
2018-02-01T07:43:31.558Z,953.64
2018-02-01T07:44:41.582Z,953.62
2018-02-01T07:45:51.561Z,953.65
2018-02-01T07:47:01.544Z,953.7
2018-02-01T07:48:11.277Z,953.72
2018-02-01T07:49:20.999Z,953.74
2018-02-01T07:50:30.025Z,953.75
2018-02-01T07:51:39.484Z,953.74
2018-02-01T07:52:49.258Z,953.8
2018-02-01T07:53:59.188Z,953.86
2018-02-01T07:55:08.923Z,953.91
2018-02-01T07:56:18.647Z,953.88
2018-02-01T07:57:28.371Z,953.93
2018-02-01T07:58:38.090Z,953.95
2018-02-01T07:59:48.076Z,953.99
2018-02-01T08:00:58.057Z,954.02
2018-02-01T08:02:08.041Z,954
2018-02-01T08:03:17.763Z,953.97
2018-02-01T08:04:27.222Z,954.07
2018-02-01T08:05:37.266Z,954.14
2018-02-01T08:06:46.991Z,954.14
2018-02-01T08:07:56.984Z,954.23
2018-02-01T08:09:06.714Z,954.23
2018-02-01T08:10:16.436Z,954.18
2018-02-01T08:11:26.422Z,954.2
2018-02-01T08:12:35.882Z,954.23
2018-02-01T08:13:45.120Z,954.29
2018-02-01T08:14:55.108Z,954.29
2018-02-01T08:16:05.089Z,954.34
2018-02-01T08:17:14.550Z,954.35
2018-02-01T08:18:24.269Z,954.4
2018-02-01T08:19:34.270Z,954.43
2018-02-01T08:20:43.992Z,954.45
2018-02-01T08:21:53.979Z,954.45
2018-02-01T08:23:03.699Z,954.45
2018-02-01T08:24:13.685Z,954.41
2018-02-01T08:25:23.411Z,954.44
2018-02-01T08:26:33.420Z,954.44
2018-02-01T08:27:42.613Z,954.42
2018-02-01T08:28:52.343Z,954.41
2018-02-01T08:30:02.067Z,954.44
2018-02-01T08:31:12.154Z,954.41
2018-02-01T08:32:22.143Z,954.42
2018-02-01T08:33:32.130Z,954.41
2018-02-01T08:34:41.850Z,954.49
2018-02-01T08:35:51.834Z,954.49
2018-02-01T08:37:01.554Z,954.51
2018-02-01T08:38:11.279Z,954.56
2018-02-01T08:39:21.260Z,954.57
2018-02-01T08:40:30.712Z,954.58
2018-02-01T08:41:40.428Z,954.62
2018-02-01T08:42:50.551Z,954.63
2018-02-01T08:44:00.276Z,954.7
2018-02-01T08:45:10.256Z,954.69
2018-02-01T08:46:20.250Z,954.71
2018-02-01T08:47:30.235Z,954.72
2018-02-01T08:48:40.220Z,954.69
2018-02-01T08:49:50.211Z,954.78
2018-02-01T08:51:00.263Z,954.77
2018-02-01T08:52:10.279Z,954.8
2018-02-01T08:53:20.003Z,954.85
2018-02-01T08:54:29.722Z,954.89
2018-02-01T08:55:39.716Z,954.85
2018-02-01T08:56:49.703Z,954.89
2018-02-01T08:57:59.160Z,954.91
2018-02-01T08:59:08.882Z,954.91
2018-02-01T09:00:18.599Z,954.89
2018-02-01T09:01:28.394Z,954.95
2018-02-01T09:02:38.118Z,954.9
2018-02-01T09:03:47.846Z,954.99
2018-02-01T09:04:57.299Z,955.03
2018-02-01T09:06:07.321Z,955.01
2018-02-01T09:07:17.055Z,955.01
2018-02-01T09:08:26.246Z,955.08
2018-02-01T09:09:36.232Z,955.08
2018-02-01T09:10:45.689Z,955.09
2018-02-01T09:11:55.725Z,955.12
2018-02-01T09:13:05.450Z,955.14
2018-02-01T09:14:15.440Z,955.12
2018-02-01T09:15:25.163Z,955.16
2018-02-01T09:16:35.152Z,955.16
2018-02-01T09:17:44.875Z,955.23
2018-02-01T09:18:54.329Z,955.21
2018-02-01T09:20:04.320Z,955.2
2018-02-01T09:21:13.290Z,955.24
2018-02-01T09:22:22.447Z,955.27
2018-02-01T09:23:32.166Z,955.28
2018-02-01T09:24:41.404Z,955.29
2018-02-01T09:25:51.448Z,955.3
2018-02-01T09:27:01.433Z,955.33
2018-02-01T09:28:11.156Z,955.31
2018-02-01T09:29:21.150Z,955.33
2018-02-01T09:30:30.872Z,955.37
2018-02-01T09:31:40.861Z,955.4
2018-02-01T09:32:50.847Z,955.42
2018-02-01T09:34:00.569Z,955.42
2018-02-01T09:35:10.789Z,955.47
2018-02-01T09:36:20.516Z,955.5
2018-02-01T09:37:30.503Z,955.52
2018-02-01T09:38:40.224Z,955.58
2018-02-01T09:39:49.951Z,955.58
2018-02-01T09:40:59.689Z,955.57
2018-02-01T09:42:09.681Z,955.59
2018-02-01T09:43:19.672Z,955.58
2018-02-01T09:44:29.649Z,955.6
2018-02-01T09:45:39.633Z,955.62
2018-02-01T09:46:49.089Z,955.66
2018-02-01T09:47:59.089Z,955.65
2018-02-01T09:49:09.078Z,955.72
2018-02-01T09:50:18.804Z,955.71
2018-02-01T09:51:28.795Z,955.76
2018-02-01T09:52:38.940Z,955.78
2018-02-01T09:53:48.931Z,955.79
2018-02-01T09:54:58.932Z,955.81
2018-02-01T09:56:08.650Z,955.81
2018-02-01T09:57:18.376Z,955.83
2018-02-01T09:58:27.936Z,955.86
2018-02-01T09:59:37.919Z,955.94
2018-02-01T10:00:47.635Z,955.89
2018-02-01T10:01:57.619Z,955.98
2018-02-01T10:03:07.613Z,955.98
2018-02-01T10:04:17.596Z,955.96
2018-02-01T10:05:27.638Z,955.99
2018-02-01T10:06:37.111Z,955.97
2018-02-01T10:07:47.100Z,955.94
2018-02-01T10:08:57.084Z,956
2018-02-01T10:10:07.067Z,955.99
2018-02-01T10:11:17.106Z,956.04
2018-02-01T10:12:27.097Z,956.05
2018-02-01T10:13:36.884Z,956.07
2018-02-01T10:14:46.602Z,956.08
2018-02-01T10:15:56.654Z,956.11
2018-02-01T10:17:06.373Z,956.12
2018-02-01T10:18:15.826Z,956.13
2018-02-01T10:19:25.632Z,956.13
2018-02-01T10:20:35.086Z,956.17
2018-02-01T10:21:44.811Z,956.21
2018-02-01T10:22:54.581Z,956.22
2018-02-01T10:24:04.572Z,956.25
2018-02-01T10:25:14.575Z,956.23
2018-02-01T10:26:24.342Z,956.29
2018-02-01T10:27:34.061Z,956.3
2018-02-01T10:28:44.063Z,956.38
2018-02-01T10:29:54.048Z,956.3
2018-02-01T10:31:03.507Z,956.36
2018-02-01T10:32:12.963Z,956.39
2018-02-01T10:33:22.742Z,956.39
2018-02-01T10:34:32.465Z,956.42
2018-02-01T10:35:42.190Z,956.42
2018-02-01T10:36:52.298Z,956.47
2018-02-01T10:38:01.759Z,956.46
2018-02-01T10:39:14.332Z,956.48
2018-02-01T10:40:24.051Z,956.5
2018-02-01T10:41:33.771Z,956.52
2018-02-01T10:42:43.232Z,956.52
2018-02-01T10:43:53.036Z,956.53
2018-02-01T10:45:02.498Z,956.55
2018-02-01T10:46:12.216Z,956.6
2018-02-01T10:47:22.204Z,956.64
2018-02-01T10:48:32.204Z,956.62
2018-02-01T10:49:42.009Z,956.62
2018-02-01T10:50:52.495Z,956.68
2018-02-01T10:52:02.218Z,956.68
2018-02-01T10:53:12.208Z,956.71
2018-02-01T10:54:22.198Z,956.71
2018-02-01T10:55:31.919Z,956.78
2018-02-01T10:56:41.900Z,956.84
2018-02-01T10:57:51.623Z,956.87
2018-02-01T10:59:01.076Z,956.9
2018-02-01T11:00:10.552Z,956.91
2018-02-01T11:01:20.796Z,956.97
2018-02-01T11:02:30.521Z,957.04
2018-02-01T11:03:40.249Z,957.03
2018-02-01T11:04:49.976Z,957.1
2018-02-01T11:05:59.693Z,957.07
2018-02-01T11:07:09.423Z,957.13
2018-02-01T11:08:19.411Z,957.08
2018-02-01T11:09:28.868Z,957.13
2018-02-01T11:10:38.855Z,957.12
2018-02-01T11:11:48.319Z,957.12
2018-02-01T11:12:58.045Z,957.18
2018-02-01T11:14:07.817Z,957.12
2018-02-01T11:15:17.535Z,957.15
2018-02-01T11:16:27.524Z,957.3
2018-02-01T11:17:37.255Z,957.32
2018-02-01T11:18:46.978Z,957.32
2018-02-01T11:19:56.965Z,957.38
2018-02-01T11:21:06.423Z,957.38
2018-02-01T11:22:16.146Z,957.38
2018-02-01T11:23:26.130Z,957.41
2018-02-01T11:24:35.846Z,957.4
2018-02-01T11:25:45.940Z,957.44
2018-02-01T11:26:55.662Z,957.44
2018-02-01T11:28:05.117Z,957.45
2018-02-01T11:29:15.108Z,957.48
2018-02-01T11:30:24.830Z,957.55
2018-02-01T11:31:34.556Z,957.55
2018-02-01T11:32:44.060Z,957.61
2018-02-01T11:33:53.543Z,957.62
2018-02-01T11:35:03.321Z,957.68
2018-02-01T11:36:12.785Z,957.76
2018-02-01T11:37:22.770Z,957.69
2018-02-01T11:38:32.490Z,957.75
2018-02-01T11:39:42.225Z,957.79
2018-02-01T11:40:52.215Z,957.87
2018-02-01T11:42:02.204Z,957.91
2018-02-01T11:43:11.927Z,957.86
2018-02-01T11:44:21.912Z,957.86
2018-02-01T11:45:31.694Z,957.92
2018-02-01T11:46:41.423Z,957.89
2018-02-01T11:47:51.141Z,957.97
2018-02-01T11:49:01.187Z,958.02
2018-02-01T11:50:10.912Z,958.01
2018-02-01T11:51:20.630Z,958.07
2018-02-01T11:52:29.821Z,958.07
2018-02-01T11:53:39.809Z,958.11
2018-02-01T11:54:49.800Z,958.09
2018-02-01T11:55:59.540Z,958.11
2018-02-01T11:57:08.994Z,958.12
2018-02-01T11:58:18.979Z,958.05
2018-02-01T11:59:28.697Z,958.11
2018-02-01T12:00:38.416Z,958.12
2018-02-01T12:01:48.136Z,958.11
2018-02-01T12:02:58.131Z,958.11
2018-02-01T12:04:07.898Z,958.16
2018-02-01T12:05:17.626Z,958.15
2018-02-01T12:06:27.663Z,958.19
2018-02-01T12:07:37.645Z,958.26
2018-02-01T12:08:47.657Z,958.28
2018-02-01T12:09:57.438Z,958.33
2018-02-01T12:11:07.426Z,958.41
2018-02-01T12:12:17.149Z,958.43
2018-02-01T12:13:27.144Z,958.45
2018-02-01T12:14:36.880Z,958.49
2018-02-01T12:15:46.612Z,958.51
2018-02-01T12:16:56.604Z,958.51
2018-02-01T12:18:06.602Z,958.54
2018-02-01T12:19:16.059Z,958.6
2018-02-01T12:20:26.045Z,958.54
2018-02-01T12:21:36.041Z,958.6
2018-02-01T12:22:45.759Z,958.61
2018-02-01T12:23:55.581Z,958.67
2018-02-01T12:25:05.575Z,958.7
2018-02-01T12:26:15.296Z,958.72
2018-02-01T12:27:25.018Z,958.73
2018-02-01T12:28:34.477Z,958.8
2018-02-01T12:29:44.194Z,958.78
2018-02-01T12:30:53.660Z,958.79
2018-02-01T12:32:03.647Z,958.89
2018-02-01T12:33:13.375Z,958.87
2018-02-01T12:34:23.355Z,958.95
2018-02-01T12:35:33.501Z,958.94
2018-02-01T12:36:43.529Z,958.95
2018-02-01T12:37:53.570Z,958.98
2018-02-01T12:39:03.563Z,958.97
2018-02-01T12:40:13.284Z,958.98
2018-02-01T12:41:23.175Z,959.06
2018-02-01T12:42:33.157Z,959.07
2018-02-01T12:43:42.615Z,959.12
2018-02-01T12:44:52.654Z,959.12
2018-02-01T12:46:02.391Z,959.16
2018-02-01T12:47:11.852Z,959.14
2018-02-01T12:48:21.834Z,959.18
2018-02-01T12:49:31.819Z,959.22
2018-02-01T12:50:41.287Z,959.18
2018-02-01T12:51:51.417Z,959.18
2018-02-01T12:53:01.473Z,959.24
2018-02-01T12:54:11.496Z,959.25
2018-02-01T12:55:21.232Z,959.24
2018-02-01T12:56:31.218Z,959.21
2018-02-01T12:57:40.938Z,959.27
2018-02-01T12:58:50.445Z,959.25
2018-02-01T13:00:00.176Z,959.27
2018-02-01T13:01:09.902Z,959.31
2018-02-01T13:02:19.632Z,959.37
2018-02-01T13:03:29.354Z,959.38
2018-02-01T13:04:39.145Z,959.39
2018-02-01T13:05:48.867Z,959.42
2018-02-01T13:06:58.594Z,959.43
2018-02-01T13:08:08.049Z,959.43
2018-02-01T13:09:18.037Z,959.42
2018-02-01T13:10:28.053Z,959.46
2018-02-01T13:11:37.778Z,959.49
2018-02-01T13:12:47.504Z,959.51
2018-02-01T13:13:57.227Z,959.54
2018-02-01T13:15:06.946Z,959.53
2018-02-01T13:16:16.936Z,959.59
2018-02-01T13:17:26.928Z,959.56
2018-02-01T13:18:36.761Z,959.6
2018-02-01T13:19:46.483Z,959.6
2018-02-01T13:20:56.202Z,959.62
2018-02-01T13:22:05.656Z,959.65
2018-02-01T13:23:15.638Z,959.68
2018-02-01T13:24:25.628Z,959.71
2018-02-01T13:25:35.627Z,959.73
2018-02-01T13:26:45.082Z,959.77
2018-02-01T13:27:54.802Z,959.76
2018-02-01T13:29:04.786Z,959.83
2018-02-01T13:30:14.777Z,959.82
2018-02-01T13:31:24.764Z,959.84
2018-02-01T13:32:34.487Z,959.78
2018-02-01T13:33:44.471Z,959.9
2018-02-01T13:34:54.199Z,959.91
2018-02-01T13:36:03.932Z,959.92
2018-02-01T13:37:13.654Z,959.94
2018-02-01T13:38:23.378Z,959.99
2018-02-01T13:39:33.463Z,959.97
2018-02-01T13:40:42.935Z,959.99
2018-02-01T13:41:52.921Z,960
2018-02-01T13:43:02.689Z,960.09
2018-02-01T13:44:12.408Z,960.07
2018-02-01T13:45:23.105Z,960.08
2018-02-01T13:46:33.091Z,960.08
2018-02-01T13:47:43.077Z,960.11
2018-02-01T13:48:53.064Z,960.13
2018-02-01T13:50:03.051Z,960.18
2018-02-01T13:51:13.036Z,960.18
2018-02-01T13:52:23.020Z,960.23
2018-02-01T13:53:32.741Z,960.21
2018-02-01T13:54:42.466Z,960.19
2018-02-01T13:55:52.456Z,960.24
2018-02-01T13:57:02.443Z,960.25
2018-02-01T13:58:12.167Z,960.29
2018-02-01T13:59:22.162Z,960.29
2018-02-01T14:00:32.193Z,960.31
2018-02-01T14:01:41.914Z,960.33
2018-02-01T14:02:51.691Z,960.34
2018-02-01T14:04:01.147Z,960.37
2018-02-01T14:05:10.605Z,960.39
2018-02-01T14:06:20.329Z,960.37
2018-02-01T14:07:30.312Z,960.39
2018-02-01T14:08:39.504Z,960.4
2018-02-01T14:09:49.240Z,960.41
2018-02-01T14:10:59.226Z,960.38
2018-02-01T14:12:08.683Z,960.44
2018-02-01T14:13:18.670Z,960.5
2018-02-01T14:14:28.390Z,960.47
2018-02-01T14:15:37.847Z,960.47
2018-02-01T14:16:47.568Z,960.49
2018-02-01T14:17:57.562Z,960.53
2018-02-01T14:19:07.019Z,960.53
2018-02-01T14:20:16.746Z,960.53
2018-02-01T14:21:26.736Z,960.58
2018-02-01T14:22:36.722Z,960.56
2018-02-01T14:23:46.453Z,960.58
2018-02-01T14:24:56.172Z,960.62
2018-02-01T14:26:06.167Z,960.63
2018-02-01T14:27:15.894Z,960.61
2018-02-01T14:28:25.619Z,960.65
2018-02-01T14:29:35.340Z,960.65
2018-02-01T14:30:45.060Z,960.7
2018-02-01T14:31:55.045Z,960.7
2018-02-01T14:33:05.041Z,960.74
2018-02-01T14:34:14.495Z,960.73
2018-02-01T14:35:24.214Z,960.81
2018-02-01T14:36:33.931Z,960.79